Time;durP1;ratioP1;P1;durP2;ratioP2;P2;SDS_P1;SDS_P2;PMS_P1;PMS_P2;Temp;Humidity;BMP_temperature;BMP_pressure;BME280_temperature;BME280_humidity;BME280_pressure;Samples;Min_cycle;Max_cycle;Signal;HPM_P1;HPM_P2
2022/11/07 00:02:24;;;;;;;406.03;379.07;;;11.20;19.80;;;;;;5074657;28;20180;-72
2022/11/07 00:04:49;;;;;;;638.87;597.37;;;11.20;20.00;;;;;;5074905;28;20231;-72
2022/11/07 00:07:15;;;;;;;427.57;398.53;;;11.10;20.40;;;;;;5074998;28;20656;-74
2022/11/07 00:09:41;;;;;;;608.03;567.67;;;11.10;21.10;;;;;;5075143;28;20237;-74
2022/11/07 00:12:07;;;;;;;536.30;502.30;;;11.00;21.40;;;;;;5073157;28;20509;-74
2022/11/07 00:14:33;;;;;;;271.53;252.37;;;11.00;21.90;;;;;;5073483;28;20549;-73
2022/11/07 00:16:59;;;;;;;361.87;337.20;;;10.90;22.50;;;;;;5074820;28;20461;-73
2022/11/07 00:19:24;;;;;;;365.17;339.27;;;10.80;22.60;;;;;;5074468;28;20507;-72
2022/11/07 00:21:50;;;;;;;440.30;411.93;;;10.70;23.10;;;;;;5074429;28;20170;-72
2022/11/07 00:24:17;;;;;;;382.60;357.67;;;10.60;23.00;;;;;;5074654;28;20174;-73
2022/11/07 00:26:44;;;;;;;558.60;521.20;;;10.70;23.10;;;;;;5073243;28;20619;-73
2022/11/07 00:29:17;;;;;;;326.57;304.63;;;10.70;23.10;;;;;;5074491;28;20447;-73
2022/11/07 00:31:43;;;;;;;283.87;263.47;;;10.70;23.10;;;;;;5074462;28;20437;-72
2022/11/07 00:34:09;;;;;;;653.33;611.73;;;10.60;23.60;;;;;;5073015;28;20420;-73
2022/11/07 00:36:34;;;;;;;630.30;589.87;;;10.60;23.40;;;;;;5074442;28;20404;-73
2022/11/07 00:39:00;;;;;;;566.60;530.10;;;10.60;23.70;;;;;;5074356;28;20217;-73
2022/11/07 00:41:26;;;;;;;689.77;646.27;;;10.70;23.10;;;;;;5074355;28;20581;-74
2022/11/07 00:43:53;;;;;;;417.73;390.97;;;10.80;23.40;;;;;;5074134;28;20417;-74
2022/11/07 00:46:19;;;;;;;576.97;539.57;;;10.80;23.30;;;;;;5074323;28;20415;-74
2022/11/07 00:48:45;;;;;;;756.73;706.17;;;10.80;23.10;;;;;;5072915;28;20423;-72
2022/11/07 00:51:17;;;;;;;706.50;657.70;;;10.90;23.20;;;;;;5074196;28;20416;-73
2022/11/07 00:53:43;;;;;;;697.83;651.63;;;10.90;23.20;;;;;;5073688;28;20473;-74
2022/11/07 00:56:12;;;;;;;684.07;637.07;;;10.90;23.00;;;;;;5073976;28;20414;-73
2022/11/07 00:58:38;;;;;;;701.20;652.87;;;10.90;22.80;;;;;;5073912;28;20424;-73
2022/11/07 01:01:16;;;;;;;714.10;665.90;;;10.90;23.20;;;;;;5074661;28;20947;-73
2022/11/07 01:06:28;;;;;;;636.57;593.87;;;10.90;23.20;;;;;;5073805;28;20423;-73
2022/11/07 01:08:55;;;;;;;434.90;403.87;;;10.80;23.10;;;;;;5073700;28;20534;-72
2022/11/07 01:11:21;;;;;;;399.93;372.33;;;10.70;23.10;;;;;;5073270;28;20420;-72
2022/11/07 01:13:47;;;;;;;127.10;115.70;;;10.60;23.10;;;;;;5073337;28;20513;-72
2022/11/07 01:16:12;;;;;;;411.27;383.80;;;10.50;24.00;;;;;;5073659;28;20408;-72
2022/11/07 01:18:38;;;;;;;520.57;488.00;;;10.30;24.50;;;;;;5073248;28;20182;-71
2022/11/07 01:21:06;;;;;;;712.03;667.77;;;10.10;25.40;;;;;;5073650;28;20219;-72
2022/11/07 01:23:31;;;;;;;577.90;540.77;;;10.10;25.80;;;;;;5072086;28;20507;-73
2022/11/07 01:25:57;;;;;;;715.73;670.17;;;10.10;25.80;;;;;;5073452;28;20419;-72
2022/11/07 01:28:23;;;;;;;772.20;722.83;;;10.20;25.70;;;;;;5073511;28;20418;-73
2022/11/07 01:30:48;;;;;;;719.93;672.30;;;10.20;25.70;;;;;;5072028;28;20285;-72
2022/11/07 01:33:14;;;;;;;742.60;695.70;;;10.20;25.90;;;;;;5073072;28;20202;-72
2022/11/07 01:35:40;;;;;;;383.73;358.97;;;10.20;25.70;;;;;;5073440;28;20170;-73
2022/11/07 01:38:06;;;;;;;640.97;598.87;;;10.20;25.80;;;;;;5073465;28;20174;-72
2022/11/07 01:41:19;;;;;;;536.30;502.87;;;10.10;26.00;;;;;;5071831;28;20809;-72
2022/11/07 01:43:20;;;;;;;379.17;352.30;;;10.00;26.00;;;;;;5072852;28;20428;-71
2022/11/07 01:45:46;;;;;;;218.57;202.07;;;9.80;27.30;;;;;;5073096;28;20769;-71
2022/11/07 01:48:11;;;;;;;562.67;528.67;;;9.70;28.40;;;;;;5073079;28;20622;-72
2022/11/07 01:50:40;;;;;;;489.83;458.30;;;9.60;28.00;;;;;;5072980;28;20656;-71
2022/11/07 01:53:06;;;;;;;541.03;507.57;;;9.50;28.20;;;;;;5072666;28;20220;-72
2022/11/07 01:55:34;;;;;;;178.43;162.63;;;9.50;28.70;;;;;;5072685;28;20511;-72
2022/11/07 01:58:06;;;;;;;684.90;640.67;;;9.40;29.10;;;;;;5072880;28;20178;-72
2022/11/07 02:00:33;;;;;;;560.40;527.50;;;9.40;30.00;;;;;;5072795;28;20423;-72
2022/11/07 02:03:06;;;;;;;275.53;256.73;;;9.40;29.80;;;;;;5071516;28;20554;-72
2022/11/07 02:05:37;;;;;;;738.47;692.77;;;9.40;29.90;;;;;;5072712;28;20427;-73
2022/11/07 02:08:06;;;;;;;462.37;431.83;;;9.30;30.10;;;;;;5072671;28;20431;-72
2022/11/07 02:10:33;;;;;;;387.77;362.57;;;9.30;30.60;;;;;;5072768;28;20434;-72
2022/11/07 02:12:59;;;;;;;242.93;225.60;;;9.30;31.50;;;;;;5072192;28;20446;-71
2022/11/07 02:15:26;;;;;;;457.17;427.27;;;9.30;31.30;;;;;;5072429;28;20560;-72
2022/11/07 02:17:52;;;;;;;310.63;288.83;;;9.30;30.40;;;;;;5071058;28;20941;-73
2022/11/07 02:20:18;;;;;;;552.37;520.67;;;9.20;30.70;;;;;;5072156;28;20467;-73
2022/11/07 02:23:04;;;;;;;231.53;215.03;;;9.20;30.80;;;;;;5071748;28;20918;-71
2022/11/07 02:25:30;;;;;;;418.73;392.03;;;9.30;30.30;;;;;;5072245;28;20218;-72
2022/11/07 02:28:00;;;;;;;280.67;260.77;;;9.20;30.40;;;;;;5072127;28;20758;-71
2022/11/07 02:30:29;;;;;;;418.40;390.20;;;9.20;30.20;;;;;;5072095;28;20258;-71
2022/11/07 02:32:55;;;;;;;607.93;568.83;;;9.20;30.50;;;;;;5071849;28;20459;-72
2022/11/07 02:35:38;;;;;;;567.63;533.33;;;9.20;30.80;;;;;;5072150;28;20408;-71
2022/11/07 02:38:09;;;;;;;758.23;710.87;;;9.30;30.40;;;;;;5072199;28;20426;-72
2022/11/07 02:40:35;;;;;;;419.90;392.73;;;9.30;30.80;;;;;;5072444;28;20467;-72
2022/11/07 02:43:02;;;;;;;786.13;736.73;;;9.40;30.60;;;;;;5071821;28;20429;-72
2022/11/07 02:45:31;;;;;;;474.60;442.57;;;9.50;30.70;;;;;;5072054;28;20748;-72
2022/11/07 02:47:57;;;;;;;299.13;279.87;;;9.60;29.80;;;;;;5070652;28;20423;-72
2022/11/07 02:50:23;;;;;;;361.20;338.33;;;9.70;29.30;;;;;;5072082;28;21016;-72
2022/11/07 02:52:48;;;;;;;433.13;406.33;;;9.80;29.10;;;;;;5071606;28;20724;-71
2022/11/07 02:55:15;;;;;;;291.73;269.30;;;9.80;28.80;;;;;;5070461;28;20170;-72
2022/11/07 02:57:40;;;;;;;628.27;587.00;;;9.80;28.80;;;;;;5071880;28;20641;-72
2022/11/07 03:00:08;;;;;;;569.67;531.40;;;9.90;28.30;;;;;;5071861;28;20435;-71
2022/11/07 03:02:34;;;;;;;783.40;733.93;;;10.00;27.40;;;;;;5070255;28;20424;-70
2022/11/07 03:05:00;;;;;;;262.03;244.50;;;10.10;26.80;;;;;;5070464;28;20449;-72
2022/11/07 03:07:25;;;;;;;264.70;244.57;;;10.20;26.80;;;;;;5070317;28;20193;-72
2022/11/07 03:09:51;;;;;;;498.00;464.27;;;10.30;26.70;;;;;;5071688;28;20204;-72
2022/11/07 03:12:17;;;;;;;801.73;749.97;;;10.30;26.30;;;;;;5070038;28;20201;-70
2022/11/07 03:14:42;;;;;;;577.90;539.47;;;10.40;26.40;;;;;;5071619;28;20181;-72
2022/11/07 03:17:08;;;;;;;606.40;566.87;;;10.30;26.00;;;;;;5071669;28;20476;-72
2022/11/07 03:19:34;;;;;;;584.77;547.77;;;10.40;26.10;;;;;;5071441;28;20533;-73
2022/11/07 03:21:59;;;;;;;300.47;278.93;;;10.30;25.90;;;;;;5071290;28;20412;-71
2022/11/07 03:24:25;;;;;;;724.57;678.30;;;10.40;26.10;;;;;;5071626;28;20170;-71
2022/11/07 03:26:50;;;;;;;293.70;272.60;;;10.40;25.80;;;;;;5071529;28;20177;-72
2022/11/07 03:29:16;;;;;;;446.20;418.03;;;10.40;25.70;;;;;;5071450;28;20193;-72
2022/11/07 03:31:41;;;;;;;573.87;536.40;;;10.30;25.70;;;;;;5071402;28;20177;-71
2022/11/07 03:34:07;;;;;;;140.93;128.10;;;10.20;25.90;;;;;;5071327;28;20177;-71
2022/11/07 03:36:33;;;;;;;470.90;442.93;;;10.20;26.00;;;;;;5075602;28;20185;-72
2022/11/07 03:38:59;;;;;;;116.33;105.50;;;10.10;26.00;;;;;;5075628;28;20196;-72
2022/11/07 03:41:25;;;;;;;382.17;357.37;;;10.00;26.20;;;;;;5075305;28;20420;-72
2022/11/07 03:43:50;;;;;;;495.23;464.87;;;9.90;26.90;;;;;;5075095;28;20430;-72
2022/11/07 03:46:16;;;;;;;388.40;362.73;;;9.90;26.70;;;;;;5074110;28;20203;-72
2022/11/07 03:48:42;;;;;;;399.90;375.80;;;9.90;26.40;;;;;;5075411;28;20612;-74
2022/11/07 03:51:08;;;;;;;384.40;359.97;;;10.00;25.40;;;;;;5074960;28;20178;-72
2022/11/07 03:53:35;;;;;;;187.17;172.27;;;10.00;25.20;;;;;;5075649;28;20483;-73
2022/11/07 03:56:09;;;;;;;485.83;454.87;;;10.00;25.10;;;;;;5076453;28;20443;-73
2022/11/07 03:58:34;;;;;;;476.83;446.57;;;10.10;25.00;;;;;;5077781;28;20404;-74
2022/11/07 04:01:00;;;;;;;383.47;357.43;;;10.10;24.70;;;;;;5075225;28;20928;-73
2022/11/07 04:03:25;;;;;;;596.37;559.17;;;10.10;24.60;;;;;;5075032;28;20633;-74
2022/11/07 04:05:51;;;;;;;305.63;283.57;;;10.20;24.30;;;;;;5075011;28;20185;-75
2022/11/07 04:08:17;;;;;;;442.57;415.30;;;10.20;24.40;;;;;;5074965;28;20206;-74
2022/11/07 04:10:42;;;;;;;319.27;297.40;;;10.20;23.70;;;;;;5073881;28;20292;-73
2022/11/07 04:18:38;;;;;;;220.73;202.93;;;10.30;23.90;;;;;;5074805;28;20840;-73
2022/11/07 04:21:03;;;;;;;593.43;547.13;;;10.40;24.10;;;;;;5075059;28;20423;-74
2022/11/07 04:23:29;;;;;;;366.20;340.90;;;10.40;23.40;;;;;;5074769;28;20680;-74
2022/11/07 04:28:38;;;;;;;551.17;514.33;;;10.50;23.50;;;;;;5074757;28;20184;-73
2022/11/07 04:31:04;;;;;;;338.07;314.00;;;10.50;23.20;;;;;;5073236;28;20900;-72
2022/11/07 04:33:30;;;;;;;215.27;197.97;;;10.50;23.20;;;;;;5074187;28;20197;-74
2022/11/07 04:35:55;;;;;;;299.10;277.33;;;10.50;23.30;;;;;;5074331;28;20170;-74
2022/11/07 04:38:21;;;;;;;420.87;393.63;;;10.50;23.20;;;;;;5074499;28;20738;-73
2022/11/07 04:40:56;;;;;;;380.97;355.17;;;10.50;23.00;;;;;;5074411;28;20217;-72
2022/11/07 04:43:24;;;;;;;487.07;453.77;;;10.40;23.30;;;;;;5074269;28;20173;-74
2022/11/07 04:45:50;;;;;;;332.77;309.73;;;10.40;23.20;;;;;;5073822;28;20865;-74
2022/11/07 04:48:17;;;;;;;340.03;316.87;;;10.50;22.90;;;;;;5074061;28;20477;-74
2022/11/07 04:50:43;;;;;;;563.90;524.40;;;10.60;23.00;;;;;;5074045;28;20850;-74
2022/11/07 04:53:14;;;;;;;310.37;288.37;;;10.50;23.00;;;;;;5073898;28;20463;-72
2022/11/07 04:55:40;;;;;;;228.20;211.20;;;10.50;23.50;;;;;;5074235;28;20408;-73
2022/11/07 04:58:06;;;;;;;457.60;425.83;;;10.50;22.90;;;;;;5074134;28;20491;-74
2022/11/07 05:00:32;;;;;;;386.87;362.33;;;10.50;22.90;;;;;;5072595;28;20581;-74
2022/11/07 05:02:58;;;;;;;347.57;323.33;;;10.50;22.90;;;;;;5073835;28;20186;-73
2022/11/07 05:05:23;;;;;;;333.27;309.27;;;10.50;22.90;;;;;;5073872;28;20404;-73
2022/11/07 05:07:49;;;;;;;432.07;402.90;;;10.40;22.90;;;;;;5073930;28;20177;-74
2022/11/07 05:10:24;;;;;;;216.90;200.23;;;10.40;22.90;;;;;;5072575;28;20193;-74
2022/11/07 05:12:50;;;;;;;284.83;264.13;;;10.40;22.90;;;;;;5073519;28;21076;-73
2022/11/07 05:15:17;;;;;;;334.90;311.73;;;10.30;22.80;;;;;;5073726;28;20903;-72
2022/11/07 05:17:43;;;;;;;509.30;474.50;;;10.20;23.20;;;;;;5074047;28;20405;-75
2022/11/07 05:20:27;;;;;;;503.67;470.30;;;10.30;23.30;;;;;;5074059;28;20991;-74
2022/11/07 05:23:12;;;;;;;485.70;453.60;;;10.30;23.20;;;;;;5072345;28;20969;-72
2022/11/07 05:25:47;;;;;;;694.47;647.87;;;10.30;23.60;;;;;;5073583;28;20911;-72
2022/11/07 05:28:16;;;;;;;369.20;342.90;;;10.40;22.90;;;;;;5072243;28;20411;-72
2022/11/07 05:30:43;;;;;;;274.37;254.10;;;10.50;22.90;;;;;;5072131;28;20440;-72
2022/11/07 05:33:10;;;;;;;514.33;479.43;;;10.50;22.90;;;;;;5073040;28;20446;-72
2022/11/07 05:35:36;;;;;;;492.40;458.90;;;10.50;22.90;;;;;;5073303;28;20465;-72
2022/11/07 05:38:02;;;;;;;451.77;421.87;;;10.50;22.70;;;;;;5073440;28;20927;-72
2022/11/07 05:40:28;;;;;;;447.50;416.00;;;10.50;22.90;;;;;;5073312;28;20883;-73
2022/11/07 05:43:01;;;;;;;656.33;609.67;;;10.50;22.80;;;;;;5073475;28;20503;-73
2022/11/07 05:45:28;;;;;;;305.60;283.33;;;10.70;22.60;;;;;;5073287;28;20174;-73
2022/11/07 05:47:58;;;;;;;350.33;325.83;;;10.70;22.20;;;;;;5073069;28;20415;-73
2022/11/07 05:50:24;;;;;;;497.63;463.90;;;10.70;22.00;;;;;;5072861;28;20456;-73
2022/11/07 05:52:50;;;;;;;372.27;346.10;;;10.70;22.00;;;;;;5072563;28;20967;-73
2022/11/07 05:55:15;;;;;;;595.27;552.53;;;10.70;22.00;;;;;;5072693;28;20184;-73
2022/11/07 05:57:41;;;;;;;500.57;465.40;;;10.80;22.20;;;;;;5071487;28;20176;-73
2022/11/07 06:00:07;;;;;;;213.70;196.70;;;10.70;22.10;;;;;;5072649;28;20217;-73
2022/11/07 06:02:32;;;;;;;464.43;432.83;;;10.70;22.50;;;;;;5071365;28;20838;-73
2022/11/07 06:04:58;;;;;;;398.77;370.33;;;10.70;22.50;;;;;;5072670;28;20409;-73
2022/11/07 06:07:23;;;;;;;279.37;258.27;;;10.80;22.40;;;;;;5072836;28;20232;-73
2022/11/07 06:09:49;;;;;;;521.23;486.60;;;10.90;22.30;;;;;;5071251;28;20206;-73
2022/11/07 06:12:14;;;;;;;361.00;334.23;;;10.90;22.20;;;;;;5072169;28;20216;-73
2022/11/07 06:14:40;;;;;;;546.90;508.33;;;10.90;21.80;;;;;;5072594;28;20197;-72
2022/11/07 06:17:06;;;;;;;513.37;476.83;;;11.00;21.90;;;;;;5072371;28;20538;-72
2022/11/07 06:19:31;;;;;;;488.47;456.30;;;10.90;21.90;;;;;;5072429;28;20253;-74
2022/11/07 06:21:59;;;;;;;512.33;478.00;;;10.90;22.40;;;;;;5072143;28;20180;-73
2022/11/07 06:24:25;;;;;;;646.30;598.90;;;11.00;22.40;;;;;;5072567;28;20861;-73
2022/11/07 06:26:50;;;;;;;316.33;294.30;;;11.00;22.20;;;;;;5072284;28;20413;-74
2022/11/07 06:29:16;;;;;;;445.73;412.73;;;11.00;22.40;;;;;;5072289;28;20198;-75
2022/11/07 06:31:42;;;;;;;501.40;465.67;;;11.10;22.10;;;;;;5072088;28;20206;-74
2022/11/07 06:34:07;;;;;;;344.53;320.67;;;11.20;21.70;;;;;;5071789;28;20716;-74
2022/11/07 06:36:33;;;;;;;760.70;704.50;;;11.30;21.70;;;;;;5072361;28;20649;-74
2022/11/07 06:38:58;;;;;;;341.47;315.90;;;11.40;21.60;;;;;;5073356;28;20191;-72
2022/11/07 06:41:24;;;;;;;665.00;617.13;;;11.40;21.50;;;;;;5070732;28;20205;-72
2022/11/07 06:43:52;;;;;;;335.40;309.67;;;11.30;21.70;;;;;;5070542;28;20254;-72
2022/11/07 06:46:21;;;;;;;528.43;488.17;;;11.30;21.80;;;;;;5072082;28;20231;-72
2022/11/07 06:48:47;;;;;;;458.37;425.13;;;11.30;21.30;;;;;;5083512;28;20451;-72
2022/11/07 06:51:12;;;;;;;521.90;483.13;;;11.30;20.80;;;;;;5087750;28;20510;-72
2022/11/07 06:53:38;;;;;;;499.20;462.97;;;11.30;21.20;;;;;;5082128;28;20205;-72
2022/11/07 06:56:10;;;;;;;713.73;661.70;;;11.20;21.00;;;;;;5068502;28;20699;-71
2022/11/07 06:58:36;;;;;;;541.87;502.73;;;11.20;21.60;;;;;;5067785;28;20417;-72
2022/11/07 07:01:04;;;;;;;248.30;227.37;;;11.30;20.70;;;;;;5067461;28;20413;-72
2022/11/07 07:03:30;;;;;;;572.17;529.53;;;11.30;20.40;;;;;;5066428;28;20199;-71
2022/11/07 07:06:00;;;;;;;441.53;411.03;;;11.30;20.40;;;;;;5069185;28;20408;-71
2022/11/07 07:08:26;;;;;;;385.73;357.67;;;11.30;20.10;;;;;;5071781;28;20224;-71
2022/11/07 07:10:51;;;;;;;531.83;494.13;;;11.10;20.00;;;;;;5071195;28;20445;-72
2022/11/07 07:13:17;;;;;;;786.27;730.87;;;11.10;20.10;;;;;;5071266;28;20212;-73
2022/11/07 07:15:50;;;;;;;454.30;421.30;;;11.00;20.60;;;;;;5071426;28;20185;-72
2022/11/07 07:18:16;;;;;;;524.03;487.07;;;11.00;20.30;;;;;;5071750;28;20655;-72
2022/11/07 07:20:42;;;;;;;251.23;230.93;;;11.00;20.50;;;;;;5071675;28;20947;-72
2022/11/07 07:23:07;;;;;;;351.57;324.90;;;11.00;20.10;;;;;;5071333;28;20416;-72
2022/11/07 07:25:33;;;;;;;499.27;463.63;;;11.00;20.00;;;;;;5071606;28;20197;-72
2022/11/07 07:27:58;;;;;;;546.00;507.00;;;10.90;20.20;;;;;;5071596;28;20645;-72
2022/11/07 07:30:24;;;;;;;456.07;423.93;;;10.90;20.40;;;;;;5071377;28;20205;-71
2022/11/07 07:32:50;;;;;;;492.10;457.13;;;10.90;20.10;;;;;;5071274;28;20206;-73
2022/11/07 07:35:16;;;;;;;311.77;288.63;;;10.90;20.10;;;;;;5071463;28;20219;-73
2022/11/07 07:37:41;;;;;;;385.37;354.23;;;11.00;19.40;;;;;;5071833;28;20505;-71
2022/11/07 07:40:07;;;;;;;541.60;502.33;;;11.00;19.20;;;;;;5086721;28;20193;-71
2022/11/07 07:42:33;;;;;;;466.90;432.17;;;11.10;19.60;;;;;;5090069;28;20181;-71
2022/11/07 07:44:59;;;;;;;528.77;493.77;;;11.20;19.20;;;;;;5091475;28;20459;-72
2022/11/07 07:47:24;;;;;;;375.17;348.97;;;11.30;19.20;;;;;;5091532;28;20520;-72
2022/11/07 07:49:50;;;;;;;508.13;471.83;;;11.40;19.20;;;;;;5091382;28;20200;-72
2022/11/07 07:52:15;;;;;;;580.03;539.37;;;11.40;18.90;;;;;;5091207;28;20671;-72
2022/11/07 07:54:41;;;;;;;452.43;419.60;;;11.50;18.70;;;;;;5078460;28;20550;-72
2022/11/07 07:57:09;;;;;;;553.03;511.10;;;11.70;18.60;;;;;;5074771;28;20637;-79
2022/11/07 07:59:35;;;;;;;685.13;634.47;;;11.90;18.60;;;;;;5081927;28;20203;-72
2022/11/07 08:02:00;;;;;;;697.97;645.73;;;12.00;18.10;;;;;;5091159;28;20465;-72
2022/11/07 08:04:26;;;;;;;451.30;418.77;;;12.20;17.50;;;;;;5089304;28;20172;-72
2022/11/07 08:06:52;;;;;;;636.03;589.90;;;12.20;17.40;;;;;;5071157;28;20178;-72
2022/11/07 08:09:17;;;;;;;549.00;508.90;;;12.40;17.00;;;;;;5071078;28;20277;-72
2022/11/07 08:11:43;;;;;;;414.77;384.20;;;12.70;16.40;;;;;;5070900;28;20177;-72
2022/11/07 08:14:10;;;;;;;615.67;571.53;;;12.70;16.90;;;;;;5070720;28;20281;-72
2022/11/07 08:16:35;;;;;;;416.77;384.17;;;12.80;16.60;;;;;;5070864;28;20257;-72
2022/11/07 08:19:01;;;;;;;393.93;360.37;;;12.90;16.10;;;;;;5071023;28;20869;-72
2022/11/07 08:21:26;;;;;;;558.97;516.47;;;12.90;16.10;;;;;;5071672;28;20340;-72
2022/11/07 08:23:53;;;;;;;449.17;416.83;;;13.00;16.10;;;;;;5074453;28;20216;-71
2022/11/07 08:26:19;;;;;;;749.33;691.93;;;13.10;16.20;;;;;;5074661;28;20172;-71
2022/11/07 08:28:45;;;;;;;615.73;569.33;;;13.00;15.30;;;;;;5074587;28;20443;-72
2022/11/07 08:31:11;;;;;;;539.73;500.07;;;13.20;16.30;;;;;;5074520;28;20178;-71
2022/11/07 08:33:37;;;;;;;361.70;335.27;;;13.10;15.40;;;;;;5074364;28;20349;-72
2022/11/07 08:36:04;;;;;;;647.50;596.97;;;13.10;15.70;;;;;;5074544;28;20518;-72
2022/11/07 08:38:32;;;;;;;745.87;693.13;;;13.10;15.20;;;;;;5074465;28;20843;-72
2022/11/07 08:40:58;;;;;;;543.63;505.67;;;13.20;15.70;;;;;;5074427;28;20404;-71
2022/11/07 08:43:24;;;;;;;481.77;446.10;;;13.20;15.20;;;;;;5073967;28;20778;-72
2022/11/07 08:45:52;;;;;;;636.70;592.70;;;13.30;15.30;;;;;;5074258;28;20510;-72
2022/11/07 08:48:18;;;;;;;206.33;189.43;;;13.50;14.40;;;;;;5074237;28;20906;-72
2022/11/07 08:50:44;;;;;;;478.97;442.63;;;13.70;14.40;;;;;;5074459;28;20535;-72
2022/11/07 08:53:10;;;;;;;380.50;351.63;;;13.80;14.20;;;;;;5073985;28;20197;-74
2022/11/07 08:55:36;;;;;;;570.07;529.73;;;14.00;13.50;;;;;;5074973;28;20994;-72
2022/11/07 08:58:04;;;;;;;628.07;581.67;;;13.70;13.60;;;;;;5072697;28;20500;-72
2022/11/07 09:00:29;;;;;;;506.73;467.90;;;13.70;14.00;;;;;;5073845;28;20216;-72
2022/11/07 09:02:55;;;;;;;585.13;542.37;;;13.90;13.50;;;;;;5073624;28;20491;-71
2022/11/07 09:05:20;;;;;;;604.07;560.77;;;13.90;13.50;;;;;;5074062;28;20220;-72
2022/11/07 09:07:46;;;;;;;587.70;546.77;;;14.00;12.50;;;;;;5073915;28;20185;-72
2022/11/07 09:10:12;;;;;;;487.53;452.20;;;14.00;12.40;;;;;;5073813;28;20201;-72
2022/11/07 09:12:48;;;;;;;647.33;601.93;;;14.10;12.50;;;;;;5072142;28;20198;-72
2022/11/07 09:15:14;;;;;;;609.40;564.60;;;14.10;12.50;;;;;;5073807;28;20224;-71
2022/11/07 09:17:40;;;;;;;538.50;499.70;;;14.00;12.40;;;;;;5072393;28;20783;-72
2022/11/07 09:20:06;;;;;;;629.67;585.73;;;14.00;12.40;;;;;;5073585;28;20444;-72
2022/11/07 09:22:32;;;;;;;480.77;447.47;;;14.00;11.80;;;;;;5074658;28;20424;-72
2022/11/07 09:24:57;;;;;;;652.13;605.93;;;14.10;11.40;;;;;;5073602;28;20958;-72
2022/11/07 09:27:23;;;;;;;415.27;384.63;;;14.20;12.30;;;;;;5073475;28;20257;-71
2022/11/07 09:29:48;;;;;;;438.20;405.70;;;14.10;12.50;;;;;;5073480;28;20197;-71
2022/11/07 09:32:14;;;;;;;389.87;362.90;;;14.10;12.50;;;;;;5073982;28;22152;-72
2022/11/07 09:34:39;;;;;;;635.63;590.50;;;13.90;12.30;;;;;;5076344;28;20288;-71
2022/11/07 09:37:05;;;;;;;721.40;669.53;;;14.00;12.50;;;;;;5077059;28;20203;-72
2022/11/07 09:39:31;;;;;;;520.83;483.23;;;14.30;12.20;;;;;;5077883;28;20208;-72
2022/11/07 09:42:12;;;;;;;445.27;411.43;;;14.50;11.40;;;;;;5073369;28;20189;-71
2022/11/07 09:44:50;;;;;;;538.53;500.10;;;14.50;11.70;;;;;;5073144;28;20166;-71
2022/11/07 09:47:28;;;;;;;715.40;668.37;;;14.60;10.90;;;;;;5071972;28;20466;-71
2022/11/07 09:49:59;;;;;;;666.37;615.07;;;14.80;10.90;;;;;;5072801;28;20427;-72
2022/11/07 09:52:37;;;;;;;512.90;477.10;;;15.00;10.70;;;;;;5072825;28;20986;-72
2022/11/07 09:55:11;;;;;;;640.13;593.13;;;15.00;11.00;;;;;;5071750;28;20503;-72
2022/11/07 09:57:37;;;;;;;414.77;386.10;;;14.90;10.40;;;;;;5071774;28;20422;-71
2022/11/07 10:00:14;;;;;;;527.37;488.60;;;14.70;11.10;;;;;;5078057;28;20532;-71
2022/11/07 10:02:51;;;;;;;549.37;509.33;;;14.90;10.90;;;;;;5072019;28;20196;-71
2022/11/07 10:05:29;;;;;;;736.50;684.50;;;14.60;11.00;;;;;;5072598;28;20567;-71
2022/11/07 10:08:05;;;;;;;710.37;653.97;;;14.50;11.40;;;;;;5089332;28;20831;-71
2022/11/07 10:10:47;;;;;;;571.03;530.87;;;14.30;12.20;;;;;;5092678;28;20940;-71
2022/11/07 10:13:44;;;;;;;449.90;418.13;;;14.50;11.80;;;;;;5092395;28;20964;-71
2022/11/07 10:16:31;;;;;;;570.37;529.10;;;14.60;12.50;;;;;;5088988;28;20951;-72
2022/11/07 10:19:07;;;;;;;659.67;610.87;;;14.70;11.80;;;;;;5089385;28;20447;-70
2022/11/07 10:21:51;;;;;;;374.47;346.10;;;14.60;12.20;;;;;;5090978;28;20463;-71
2022/11/07 10:24:22;;;;;;;546.90;505.67;;;14.70;12.90;;;;;;5092462;28;20459;-71
2022/11/07 10:26:48;;;;;;;601.67;559.60;;;14.80;11.70;;;;;;5074889;28;20424;-72
2022/11/07 10:29:17;;;;;;;567.47;527.43;;;14.90;12.00;;;;;;5070728;28;20505;-71
2022/11/07 10:31:50;;;;;;;525.07;486.23;;;14.80;11.90;;;;;;5071469;28;20189;-72
2022/11/07 10:34:28;;;;;;;626.23;581.30;;;14.90;12.50;;;;;;5070753;28;20482;-71
2022/11/07 10:36:54;;;;;;;670.80;621.37;;;15.00;12.20;;;;;;5089309;28;20431;-72
2022/11/07 10:39:19;;;;;;;752.47;696.47;;;15.10;12.00;;;;;;5092347;28;20427;-74
2022/11/07 10:42:19;;;;;;;619.70;575.43;;;15.20;12.00;;;;;;5090105;28;20181;-71
2022/11/07 10:44:46;;;;;;;656.63;610.53;;;15.40;11.70;;;;;;5090442;28;20188;-71
2022/11/07 10:47:21;;;;;;;628.23;583.70;;;15.50;11.10;;;;;;5091051;28;20423;-71
2022/11/07 10:50:02;;;;;;;646.33;599.20;;;15.70;10.80;;;;;;5090368;28;20443;-73
2022/11/07 10:52:28;;;;;;;638.30;590.27;;;15.70;11.10;;;;;;5071571;28;20618;-71
2022/11/07 10:55:16;;;;;;;554.87;515.20;;;15.80;11.20;;;;;;5077986;28;20439;-71
2022/11/07 10:57:43;;;;;;;343.77;317.37;;;15.60;10.80;;;;;;5071192;28;20420;-71
2022/11/07 11:00:28;;;;;;;703.93;649.53;;;15.70;11.10;;;;;;5069309;28;20436;-71
2022/11/07 11:02:55;;;;;;;428.50;396.13;;;15.90;11.00;;;;;;5071444;28;20404;-71
2022/11/07 11:05:43;;;;;;;535.53;496.57;;;16.00;10.50;;;;;;5071815;28;20404;-71
2022/11/07 11:08:20;;;;;;;438.77;406.83;;;15.90;10.70;;;;;;5071760;28;20825;-71
2022/11/07 11:10:46;;;;;;;353.33;326.43;;;15.80;11.00;;;;;;5071692;28;20435;-71
2022/11/07 11:13:33;;;;;;;620.83;574.83;;;15.70;11.40;;;;;;5071395;28;20448;-71
2022/11/07 11:16:26;;;;;;;696.20;644.00;;;16.20;11.20;;;;;;5071634;28;20527;-71
2022/11/07 11:21:20;;;;;;;347.23;320.17;;;16.40;10.20;;;;;;5068801;28;20472;-70
2022/11/07 11:23:47;;;;;;;914.57;842.23;;;16.30;9.70;;;;;;5071449;28;20794;-70
2022/11/07 11:26:24;;;;;;;775.13;715.20;;;16.50;9.70;;;;;;5071921;28;20412;-70
2022/11/07 11:29:13;;;;;;;611.77;566.27;;;16.70;9.80;;;;;;5071877;28;20682;-71
2022/11/07 11:31:44;;;;;;;376.17;349.03;;;16.80;9.40;;;;;;5071640;28;20485;-71
2022/11/07 11:34:41;;;;;;;555.07;514.07;;;17.10;9.40;;;;;;5070417;28;20455;-71
2022/11/07 11:37:12;;;;;;;664.13;613.53;;;17.10;8.10;;;;;;5071731;28;20427;-70
2022/11/07 11:39:54;;;;;;;524.07;486.20;;;16.80;8.80;;;;;;5071645;28;20436;-71
2022/11/07 11:42:29;;;;;;;501.33;463.67;;;16.70;8.60;;;;;;5071739;28;20719;-71
2022/11/07 11:45:06;;;;;;;646.53;597.47;;;16.60;9.50;;;;;;5070954;28;20481;-71
2022/11/07 11:47:38;;;;;;;725.07;668.83;;;16.80;8.40;;;;;;5070617;28;20420;-72
2022/11/07 11:50:15;;;;;;;488.63;454.37;;;16.90;8.70;;;;;;5068250;28;20447;-71
2022/11/07 11:52:41;;;;;;;610.97;566.50;;;16.60;8.10;;;;;;5068687;28;20965;-71
2022/11/07 11:55:15;;;;;;;447.90;414.23;;;16.80;8.60;;;;;;5066058;28;20424;-71
2022/11/07 11:57:49;;;;;;;358.70;330.90;;;17.10;8.00;;;;;;5070808;28;20418;-71
2022/11/07 12:00:20;;;;;;;712.07;655.87;;;17.10;7.80;;;;;;5071084;28;20941;-71
2022/11/07 12:02:57;;;;;;;667.77;617.57;;;17.10;8.20;;;;;;5067384;28;20425;-71
2022/11/07 12:05:41;;;;;;;767.40;707.97;;;17.20;7.90;;;;;;5069622;28;20794;-71
2022/11/07 12:08:24;;;;;;;493.50;456.47;;;17.40;7.80;;;;;;5070242;28;20686;-71
2022/11/07 12:11:28;;;;;;;363.43;335.03;;;17.30;6.30;;;;;;5070497;28;20440;-70
2022/11/07 12:14:12;;;;;;;654.20;603.27;;;17.10;7.60;;;;;;5075313;28;20459;-71
2022/11/07 12:16:44;;;;;;;729.00;674.90;;;16.90;7.40;;;;;;5074319;28;20771;-72
2022/11/07 12:19:46;;;;;;;714.20;660.07;;;16.80;7.60;;;;;;5074854;28;20400;-71
2022/11/07 12:22:37;;;;;;;167.17;154.30;;;17.10;7.30;;;;;;5073961;28;20515;-71
2022/11/07 12:25:03;;;;;;;303.93;281.43;;;17.40;7.60;;;;;;5051091;28;20428;-71
2022/11/07 12:28:01;;;;;;;932.70;856.23;;;17.40;6.50;;;;;;5067227;28;20420;-71
2022/11/07 12:30:47;;;;;;;679.50;629.07;;;17.30;6.70;;;;;;5071230;28;20259;-71
2022/11/07 12:33:28;;;;;;;798.87;736.17;;;17.30;5.70;;;;;;5070512;28;20455;-71
2022/11/07 12:36:01;;;;;;;756.23;696.07;;;17.30;6.40;;;;;;5070235;28;20449;-70